Maradi, Niger
Current Conditions -  °F | °C
As of 1:00 PM on Wednesday 22 Oct 2014 (Local Time) from DRZA Reporting Station
Clear Clear  
Wind Chill: 95°   Ceiling: Unl
Heat Index: 95°   Visibility: 6mi
Dew Point: 45°   Wind: 5mph
Humidity: 18%   Direction: 40°NE
Pressure: 29.97"   Gusts: NA
Location:  13.49°N, 7.1°E
Report Text: DRZA 221200Z 04004KT CAVOK 35/07 Q1015
Loading
Personal Weather Stations






























Interactive Weather Map
Tropical Storm Tracking
New forecast layout! Learn more

10-Day Weather Forecast

Advertisements
Track Severe Weather on mobile